AirNav   Air Wisconsin Up To $57,000 Bonus
 
 1676 users online  

WN76 Bergseth Field Airport
Enumclaw, Washington, USA

GOING TO ENUMCLAW?


FAA INFORMATION EFFECTIVE 04 NOVEMBER 2021

Location

FAA Identifier: WN76
Lat/Long: 47-14-36.8660N 121-55-28.3940W
47-14.614433N 121-55.473233W
47.2435739,-121.9245539
(estimated)
Elevation: 1100 ft. / 335 m (estimated)
Variation: 20E (1985)
From city: 4 miles NE of ENUMCLAW, WA
Time zone: UTC -7 (UTC -8 during Standard Time)
Zip code: 98022

Airport Operations

Airport use: Private use. Permission required prior to landing
Activation date: 05/1987
Control tower: no
ARTCC: SEATTLE CENTER
FSS: SEATTLE FLIGHT SERVICE STATION
Attendance: ON CALL ON CALL ON CALL
ON CALL CTC AMGR 425-999-0875.
Wind indicator: yes
Segmented circle: no

Airport Communications

WX AWOS-3 at PLU (17 nm SW): 128.575 (253-848-2748)
WX ASOS at RNT (19 nm NW): 126.95 (425-255-6080)

Nearby radio navigation aids

VOR radial/distance  VOR name  Freq  Var
SEAr107/19.4SEATTLE VORTAC116.8019E

Airport Services

Runway Information

Runway 10/28

Dimensions: 2100 x 60 ft. / 640 x 18 m
Surface: turf/dirt
RUNWAY 10  RUNWAY 28
Traffic pattern: leftleft
Obstructions: 65 ft. hill100 ft. hill, 300 ft. from runway

Airport Ownership and Management from official FAA records

Ownership: Privately-owned
Owner: WALTER & EVELYN BERGSETH
31500 SE 408TH
ENUMCLAW, WA 98022
Phone 360-825-7345
Manager: KENNETH BERGSETH
31500 SE 408TH
ENUMCLAW, WA 98022
Phone (360) 825-7345
KEN BERGSETH- 360-825-7345 OPER10@YAHOO.COM - CELL 253-569-4861

Airport Operational Statistics

Aircraft based on the field: 3
Gliders airplanes: 3
    

Additional Remarks

ANIMALS ON & INVOF RY.
FOR CD CTC SEATTLE APCH AT 206-214-4794.

Instrument Procedures

There are no published instrument procedures at WN76.

Some nearby airports with instrument procedures:

S50 - Auburn Municipal Airport (13 nm W)
KPLU - Pierce County Airport - Thun Field (17 nm SW)
KRNT - Renton Municipal Airport (19 nm NW)
KSEA - Seattle-Tacoma International Airport (20 nm NW)
KBFI - Boeing Field/King County International Airport (23 nm NW)
 
Loc | Ops | Rwys | IFR | FBO | Links
Com | Nav | Svcs | Stats | Notes
Area around WN76 (Bergseth Field Airport)
 
Road maps at: MapQuest Bing Google
 
Aerial photo
WARNING: Photo may not be current or correct
Aerial photo of WN76 (Bergseth Field Airport)
Do you have a better or more recent aerial photo of Bergseth Field Airport that you would like to share? If so, please send us your photo.

 
Sectional chart

 
Airport distance calculator
Flying to Bergseth Field Airport? Find the distance to fly.

From to WN76

Sunrise and sunset
Times for 29-Nov-2021
 Local
(UTC-8)
 Zulu
(UTC)
Morning civil twilight06:5814:58
Sunrise07:3215:32
Sunset16:2000:20
Evening civil twilight16:5500:55

Current date and time
Zulu (UTC)  29-Nov-2021 22:57:43
Local (UTC-8)  29-Nov-2021 14:57:43
 
METAR
KPLU 
17nm SW 
292235Z AUTO 00000KT 10SM BKN050 OVC055 15/11 A3025 RMK AO2
KRNT 
19nm NW 
292253Z 18006KT 10SM FEW026 15/09 A3024 RMK AO2 SLP244 T01500094
KSEA 
20nm NW 
292253Z 22011KT 10SM FEW016 BKN060 BKN250 14/09 A3024 RMK AO2 SLP248 T01390094
KTCM 
23nm W 
292238Z AUTO 21004KT M M BKN026 15/11 A3025 RMK AO2 BKN V SCT SLP248 RVRNO $
KSMP 
24nm E 
292156Z AUTO VRB04KT 10SM BKN039 07/04 A3023 RMK AO2 SLP243 T00670044
KBFI 
24nm NW 
292253Z 20006G18KT 10SM SCT025 BKN060 14/10 A3024 RMK AO2 SLP240 T01440100
KTIW 
27nm W 
292253Z 21006KT 10SM SCT016 SCT026 BKN035 13/11 A3024 RMK AO2 SLP242 T01280106
KGRF 
28nm W 
292218Z 17008KT 10SM BKN026 15/10 A3023 RMK AO2A SLP241 $
TAF
KSEA 
20nm NW 
292100Z 2921/3024 21014KT P6SM FEW020 SCT050 BKN120 FM292300 20006KT P6SM SCT030 BKN060 FM300800 19005KT P6SM OVC020 FM301800 18007KT P6SM -RA OVC020
KTCM 
23nm W 
291300Z 2913/3019 21007KT 9999 BKN020 OVC050 620809 QNH3016INS BECMG 2915/2916 20009KT 9999 VCSH BKN015 OVC025 610809 QNH3019INS BECMG 2920/2921 21012KT 9999 NSW BKN020 OVC030 620809 QNH3021INS BECMG 3004/3005 VRB06KT 9999 SCT015 BKN030 620809 QNH3018INS BECMG 3010/3011 21009KT 8000 -SHRA BKN015 OVC025 610809 QNH3017INS TX14/2921Z TN10/2913Z
KBFI 
24nm NW 
291720Z 2918/3018 17004KT P6SM BKN009 OVC013 FM292100 20006KT P6SM BKN024 BKN040 FM292300 20006KT P6SM SCT030 BKN060 FM300800 19005KT P6SM OVC025
NOTAMs
Click for the latest NOTAMs
NOTAMs are issued by the DoD/FAA and will open in a separate window not controlled by AirNav.

 

 
 

Would you like to see your business listed on this page?

 If your business provides an interesting product or service to pilots, flight crews, aircraft, or users of the Bergseth Field Airport, you should consider listing it here.  To start the listing process, click on the button below
 
Add a business
 

Other Pages about Bergseth Field Airport

Update a link
 
Copyright © AirNav, LLC. All rights reserved. Privacy Policy  Contact